シドニー国際空港の過去48時間の天気

シドニー国際空港 (Sydney Airport)

現在時刻: 2/6 08:04 AEDT (2/5 21:04 UTC) 以下の時間は現地時間です。

過去48時間のMETAR気象情報
時間 風向 風速(m/s) 視程 気温(℃) 湿度(%) 気圧(hPa) 天気現象
6 07:30 西南西 3 10km以上 22 78 1017 周辺でしゅう雨
6 07:00 北北東 4 10km以上 23 73 1017
6 06:30 北北東 3 10km以上 22 73 1017
YSSY 052030Z 25005KT 9999 VCSH FEW018 BKN025 22/18 Q1017 RF00.0/000.0
YSSY 052000Z 03007KT 9999 FEW018 BKN024 23/18 Q1017 RF00.0/000.0
YSSY 051930Z 03006KT 9999 FEW018 BKN024 22/17 Q1017 RF00.0/000.0